Laughlin AFB, Texas
Current Conditions -  °F | °C
As of 11:58 AM on Friday 24 Oct 2014 (Local Time) from KDLF Reporting Station
Clear Clear  
Wind Chill: 76°   Ceiling: Unl
Heat Index: 78°   Visibility: 10mi
Dew Point: 65°   Wind: 5mph
Humidity: 68%   Direction: 150°SSE
Pressure: 30.19"   Gusts: NA
Location:  29.36°N, 100.78°W
Report Text: KDLF 241658Z AUTO 15004KT 10SM CLR 25/18 A3019 RMK AO2 SLP213 T02450183 $
Loading
Personal Weather Stations






























Interactive Weather Map
Tropical Storm Tracking
New forecast layout! Learn more

10-Day Weather Forecast

Advertisements
Track Severe Weather on mobile